sensor_id;sensor_type;location;lat;lon;timestamp;P1;durP1;ratioP1;P2;durP2;ratioP2
16436;SDS011;8328;52.206;21.006;2023-09-08T00:03:33;7.40;;;6.47;;
16436;SDS011;8328;52.206;21.006;2023-09-08T00:05:59;9.10;;;7.25;;
16436;SDS011;8328;52.206;21.006;2023-09-08T01:09:16;10.27;;;7.70;;
16436;SDS011;8328;52.206;21.006;2023-09-08T01:11:43;8.50;;;7.50;;
16436;SDS011;8328;52.206;21.006;2023-09-08T01:14:11;10.50;;;7.70;;
16436;SDS011;8328;52.206;21.006;2023-09-08T01:16:39;7.77;;;6.97;;
16436;SDS011;8328;52.206;21.006;2023-09-08T01:19:07;12.13;;;7.83;;
16436;SDS011;8328;52.206;21.006;2023-09-08T01:26:40;13.80;;;7.97;;
16436;SDS011;8328;52.206;21.006;2023-09-08T01:29:07;9.50;;;6.97;;
16436;SDS011;8328;52.206;21.006;2023-09-08T01:31:35;10.37;;;7.23;;
16436;SDS011;8328;52.206;21.006;2023-09-08T01:34:02;12.23;;;7.50;;
16436;SDS011;8328;52.206;21.006;2023-09-08T01:36:31;11.03;;;6.87;;
16436;SDS011;8328;52.206;21.006;2023-09-08T01:38:57;8.73;;;6.90;;
16436;SDS011;8328;52.206;21.006;2023-09-08T01:41:24;8.60;;;7.10;;
16436;SDS011;8328;52.206;21.006;2023-09-08T01:43:50;8.03;;;7.13;;
16436;SDS011;8328;52.206;21.006;2023-09-08T01:46:16;9.17;;;7.63;;
16436;SDS011;8328;52.206;21.006;2023-09-08T01:48:42;8.70;;;7.17;;
16436;SDS011;8328;52.206;21.006;2023-09-08T01:51:08;10.13;;;6.77;;
16436;SDS011;8328;52.206;21.006;2023-09-08T01:53:34;10.97;;;7.20;;
16436;SDS011;8328;52.206;21.006;2023-09-08T01:56:00;10.53;;;7.53;;
16436;SDS011;8328;52.206;21.006;2023-09-08T01:58:26;9.23;;;6.97;;
16436;SDS011;8328;52.206;21.006;2023-09-08T02:00:53;9.10;;;7.10;;
16436;SDS011;8328;52.206;21.006;2023-09-08T02:03:19;8.57;;;7.17;;
16436;SDS011;8328;52.206;21.006;2023-09-08T02:05:45;8.77;;;7.53;;
16436;SDS011;8328;52.206;21.006;2023-09-08T02:08:11;12.47;;;7.30;;
16436;SDS011;8328;52.206;21.006;2023-09-08T02:10:41;9.10;;;7.00;;
16436;SDS011;8328;52.206;21.006;2023-09-08T02:13:07;8.97;;;7.13;;
16436;SDS011;8328;52.206;21.006;2023-09-08T02:15:34;10.77;;;7.13;;
16436;SDS011;8328;52.206;21.006;2023-09-08T02:18:01;8.10;;;7.00;;
16436;SDS011;8328;52.206;21.006;2023-09-08T02:20:27;8.53;;;6.87;;
16436;SDS011;8328;52.206;21.006;2023-09-08T02:22:53;8.23;;;6.50;;
16436;SDS011;8328;52.206;21.006;2023-09-08T02:25:20;9.23;;;6.80;;
16436;SDS011;8328;52.206;21.006;2023-09-08T02:27:48;9.67;;;6.97;;
16436;SDS011;8328;52.206;21.006;2023-09-08T02:30:14;10.53;;;7.40;;
16436;SDS011;8328;52.206;21.006;2023-09-08T02:32:40;7.87;;;6.57;;
16436;SDS011;8328;52.206;21.006;2023-09-08T02:35:08;8.37;;;7.13;;
16436;SDS011;8328;52.206;21.006;2023-09-08T02:37:34;8.03;;;6.47;;
16436;SDS011;8328;52.206;21.006;2023-09-08T02:40:00;7.90;;;6.10;;
16436;SDS011;8328;52.206;21.006;2023-09-08T02:42:26;8.60;;;6.83;;
16436;SDS011;8328;52.206;21.006;2023-09-08T02:44:52;9.17;;;7.40;;
16436;SDS011;8328;52.206;21.006;2023-09-08T02:47:18;11.00;;;7.53;;
16436;SDS011;8328;52.206;21.006;2023-09-08T02:49:44;8.07;;;6.80;;
16436;SDS011;8328;52.206;21.006;2023-09-08T02:52:10;9.33;;;6.83;;
16436;SDS011;8328;52.206;21.006;2023-09-08T02:54:36;11.10;;;7.07;;
16436;SDS011;8328;52.206;21.006;2023-09-08T02:57:02;10.17;;;7.70;;
16436;SDS011;8328;52.206;21.006;2023-09-08T02:59:28;9.50;;;6.73;;
16436;SDS011;8328;52.206;21.006;2023-09-08T03:01:55;9.33;;;7.77;;
16436;SDS011;8328;52.206;21.006;2023-09-08T03:04:20;10.37;;;7.67;;
16436;SDS011;8328;52.206;21.006;2023-09-08T03:06:46;8.63;;;7.73;;
16436;SDS011;8328;52.206;21.006;2023-09-08T03:09:12;9.73;;;7.67;;
16436;SDS011;8328;52.206;21.006;2023-09-08T03:11:39;8.83;;;7.20;;
16436;SDS011;8328;52.206;21.006;2023-09-08T03:14:05;9.87;;;7.40;;
16436;SDS011;8328;52.206;21.006;2023-09-08T03:16:31;9.53;;;7.63;;
16436;SDS011;8328;52.206;21.006;2023-09-08T03:18:57;9.53;;;7.17;;
16436;SDS011;8328;52.206;21.006;2023-09-08T03:21:23;10.47;;;7.27;;
16436;SDS011;8328;52.206;21.006;2023-09-08T03:23:49;8.53;;;7.57;;
16436;SDS011;8328;52.206;21.006;2023-09-08T03:26:15;10.53;;;7.60;;
16436;SDS011;8328;52.206;21.006;2023-09-08T03:28:42;10.33;;;7.80;;
16436;SDS011;8328;52.206;21.006;2023-09-08T03:31:08;12.27;;;7.40;;
16436;SDS011;8328;52.206;21.006;2023-09-08T03:33:34;9.90;;;7.40;;
16436;SDS011;8328;52.206;21.006;2023-09-08T03:36:00;9.60;;;7.70;;
16436;SDS011;8328;52.206;21.006;2023-09-08T03:38:26;10.33;;;8.07;;
16436;SDS011;8328;52.206;21.006;2023-09-08T03:40:53;12.50;;;8.40;;
16436;SDS011;8328;52.206;21.006;2023-09-08T03:43:19;10.20;;;8.20;;
16436;SDS011;8328;52.206;21.006;2023-09-08T03:45:45;10.27;;;7.70;;
16436;SDS011;8328;52.206;21.006;2023-09-08T03:48:12;13.33;;;8.67;;
16436;SDS011;8328;52.206;21.006;2023-09-08T03:50:38;8.63;;;7.73;;
16436;SDS011;8328;52.206;21.006;2023-09-08T03:53:04;9.83;;;7.93;;
16436;SDS011;8328;52.206;21.006;2023-09-08T03:55:30;12.40;;;8.60;;
16436;SDS011;8328;52.206;21.006;2023-09-08T03:57:56;10.07;;;8.27;;
16436;SDS011;8328;52.206;21.006;2023-09-08T04:00:22;10.63;;;8.00;;
16436;SDS011;8328;52.206;21.006;2023-09-08T04:02:49;12.20;;;8.07;;
16436;SDS011;8328;52.206;21.006;2023-09-08T04:05:18;11.80;;;7.67;;
16436;SDS011;8328;52.206;21.006;2023-09-08T04:07:44;11.27;;;8.50;;
16436;SDS011;8328;52.206;21.006;2023-09-08T04:10:11;10.70;;;9.47;;
16436;SDS011;8328;52.206;21.006;2023-09-08T04:12:38;10.77;;;8.63;;
16436;SDS011;8328;52.206;21.006;2023-09-08T04:15:06;10.00;;;7.43;;
16436;SDS011;8328;52.206;21.006;2023-09-08T04:17:32;12.60;;;9.93;;
16436;SDS011;8328;52.206;21.006;2023-09-08T04:19:59;11.80;;;9.00;;
16436;SDS011;8328;52.206;21.006;2023-09-08T04:22:24;12.67;;;8.60;;
16436;SDS011;8328;52.206;21.006;2023-09-08T04:24:50;10.53;;;8.63;;
16436;SDS011;8328;52.206;21.006;2023-09-08T04:27:19;9.20;;;7.77;;
16436;SDS011;8328;52.206;21.006;2023-09-08T04:29:45;11.10;;;8.57;;
16436;SDS011;8328;52.206;21.006;2023-09-08T04:32:11;10.37;;;8.47;;
16436;SDS011;8328;52.206;21.006;2023-09-08T04:34:38;9.40;;;8.33;;
16436;SDS011;8328;52.206;21.006;2023-09-08T04:37:04;10.33;;;8.17;;
16436;SDS011;8328;52.206;21.006;2023-09-08T04:39:31;10.47;;;7.87;;
16436;SDS011;8328;52.206;21.006;2023-09-08T04:41:57;9.00;;;7.37;;
16436;SDS011;8328;52.206;21.006;2023-09-08T04:44:24;10.47;;;7.80;;
16436;SDS011;8328;52.206;21.006;2023-09-08T04:46:51;9.33;;;8.03;;
16436;SDS011;8328;52.206;21.006;2023-09-08T04:49:17;11.13;;;8.50;;
16436;SDS011;8328;52.206;21.006;2023-09-08T04:51:43;13.83;;;8.50;;
16436;SDS011;8328;52.206;21.006;2023-09-08T04:54:10;12.17;;;8.20;;
16436;SDS011;8328;52.206;21.006;2023-09-08T04:56:36;11.93;;;8.77;;
16436;SDS011;8328;52.206;21.006;2023-09-08T04:59:02;11.93;;;8.40;;
16436;SDS011;8328;52.206;21.006;2023-09-08T05:01:29;12.87;;;8.30;;
16436;SDS011;8328;52.206;21.006;2023-09-08T05:03:57;12.30;;;8.07;;
16436;SDS011;8328;52.206;21.006;2023-09-08T05:06:24;12.87;;;8.10;;
16436;SDS011;8328;52.206;21.006;2023-09-08T05:08:51;12.10;;;8.73;;
16436;SDS011;8328;52.206;21.006;2023-09-08T05:11:17;10.23;;;7.90;;
16436;SDS011;8328;52.206;21.006;2023-09-08T05:13:44;11.57;;;7.67;;
16436;SDS011;8328;52.206;21.006;2023-09-08T05:16:10;12.80;;;8.30;;
16436;SDS011;8328;52.206;21.006;2023-09-08T05:18:37;10.13;;;7.70;;
16436;SDS011;8328;52.206;21.006;2023-09-08T05:21:04;9.23;;;8.33;;
16436;SDS011;8328;52.206;21.006;2023-09-08T05:23:30;10.20;;;7.63;;
16436;SDS011;8328;52.206;21.006;2023-09-08T05:25:56;11.13;;;7.53;;
16436;SDS011;8328;52.206;21.006;2023-09-08T05:28:22;14.87;;;10.40;;
16436;SDS011;8328;52.206;21.006;2023-09-08T05:30:50;17.67;;;11.97;;
16436;SDS011;8328;52.206;21.006;2023-09-08T05:35:42;10.70;;;9.30;;
16436;SDS011;8328;52.206;21.006;2023-09-08T05:38:08;9.53;;;8.40;;
16436;SDS011;8328;52.206;21.006;2023-09-08T06:04:52;10.97;;;8.67;;
16436;SDS011;8328;52.206;21.006;2023-09-08T06:09:43;9.90;;;7.83;;
16436;SDS011;8328;52.206;21.006;2023-09-08T06:12:09;13.00;;;9.17;;
16436;SDS011;8328;52.206;21.006;2023-09-08T06:14:35;9.60;;;8.43;;
16436;SDS011;8328;52.206;21.006;2023-09-08T06:19:27;12.33;;;8.50;;
16436;SDS011;8328;52.206;21.006;2023-09-08T06:21:53;13.10;;;9.33;;
16436;SDS011;8328;52.206;21.006;2023-09-08T06:24:19;12.83;;;9.23;;
16436;SDS011;8328;52.206;21.006;2023-09-08T06:26:45;10.43;;;8.27;;
16436;SDS011;8328;52.206;21.006;2023-09-08T06:29:11;12.13;;;8.33;;
16436;SDS011;8328;52.206;21.006;2023-09-08T06:31:38;10.53;;;8.20;;
16436;SDS011;8328;52.206;21.006;2023-09-08T06:34:04;9.97;;;8.10;;
16436;SDS011;8328;52.206;21.006;2023-09-08T06:36:30;14.43;;;11.17;;
16436;SDS011;8328;52.206;21.006;2023-09-08T06:38:56;10.97;;;7.63;;
16436;SDS011;8328;52.206;21.006;2023-09-08T06:41:22;9.83;;;7.60;;
16436;SDS011;8328;52.206;21.006;2023-09-08T06:43:48;9.63;;;7.40;;
16436;SDS011;8328;52.206;21.006;2023-09-08T06:46:15;10.00;;;7.90;;
16436;SDS011;8328;52.206;21.006;2023-09-08T06:48:42;11.83;;;7.80;;
16436;SDS011;8328;52.206;21.006;2023-09-08T06:51:08;11.00;;;7.80;;
16436;SDS011;8328;52.206;21.006;2023-09-08T06:53:34;9.50;;;7.80;;
16436;SDS011;8328;52.206;21.006;2023-09-08T06:56:00;11.27;;;8.40;;
16436;SDS011;8328;52.206;21.006;2023-09-08T06:58:26;11.50;;;7.37;;
16436;SDS011;8328;52.206;21.006;2023-09-08T07:00:53;10.43;;;7.93;;
16436;SDS011;8328;52.206;21.006;2023-09-08T07:03:20;11.23;;;8.47;;
16436;SDS011;8328;52.206;21.006;2023-09-08T07:05:47;10.07;;;7.80;;
16436;SDS011;8328;52.206;21.006;2023-09-08T07:08:13;8.37;;;7.43;;
16436;SDS011;8328;52.206;21.006;2023-09-08T07:10:39;11.27;;;7.90;;
16436;SDS011;8328;52.206;21.006;2023-09-08T07:13:05;9.17;;;7.57;;
16436;SDS011;8328;52.206;21.006;2023-09-08T07:15:32;9.40;;;7.00;;
16436;SDS011;8328;52.206;21.006;2023-09-08T07:17:58;10.10;;;7.30;;
16436;SDS011;8328;52.206;21.006;2023-09-08T07:20:24;11.70;;;7.47;;
16436;SDS011;8328;52.206;21.006;2023-09-08T07:22:50;10.20;;;7.00;;
16436;SDS011;8328;52.206;21.006;2023-09-08T07:25:16;8.63;;;7.20;;
16436;SDS011;8328;52.206;21.006;2023-09-08T07:27:42;11.07;;;7.57;;
16436;SDS011;8328;52.206;21.006;2023-09-08T07:30:08;9.67;;;6.83;;
16436;SDS011;8328;52.206;21.006;2023-09-08T07:32:34;8.80;;;7.50;;
16436;SDS011;8328;52.206;21.006;2023-09-08T07:35:00;9.17;;;6.93;;
16436;SDS011;8328;52.206;21.006;2023-09-08T07:37:27;10.23;;;7.30;;
16436;SDS011;8328;52.206;21.006;2023-09-08T07:39:53;10.80;;;7.27;;
16436;SDS011;8328;52.206;21.006;2023-09-08T07:42:20;12.93;;;7.37;;
16436;SDS011;8328;52.206;21.006;2023-09-08T07:44:46;11.73;;;7.10;;
16436;SDS011;8328;52.206;21.006;2023-09-08T07:47:13;12.43;;;7.20;;
16436;SDS011;8328;52.206;21.006;2023-09-08T07:49:39;9.00;;;7.17;;
16436;SDS011;8328;52.206;21.006;2023-09-08T07:52:06;12.30;;;7.40;;
16436;SDS011;8328;52.206;21.006;2023-09-08T07:54:32;9.73;;;6.73;;
16436;SDS011;8328;52.206;21.006;2023-09-08T07:56:58;8.57;;;6.70;;
16436;SDS011;8328;52.206;21.006;2023-09-08T07:59:24;9.07;;;6.87;;
16436;SDS011;8328;52.206;21.006;2023-09-08T08:01:50;8.33;;;7.20;;
16436;SDS011;8328;52.206;21.006;2023-09-08T08:04:16;8.57;;;6.47;;
16436;SDS011;8328;52.206;21.006;2023-09-08T08:06:42;12.47;;;7.43;;
16436;SDS011;8328;52.206;21.006;2023-09-08T08:09:09;10.07;;;7.00;;
16436;SDS011;8328;52.206;21.006;2023-09-08T08:11:35;10.83;;;6.50;;
16436;SDS011;8328;52.206;21.006;2023-09-08T08:14:01;8.60;;;6.63;;
16436;SDS011;8328;52.206;21.006;2023-09-08T08:16:27;10.17;;;6.67;;
16436;SDS011;8328;52.206;21.006;2023-09-08T08:18:53;10.90;;;7.10;;
16436;SDS011;8328;52.206;21.006;2023-09-08T08:21:19;8.77;;;7.20;;
16436;SDS011;8328;52.206;21.006;2023-09-08T08:23:47;9.87;;;6.67;;
16436;SDS011;8328;52.206;21.006;2023-09-08T08:26:14;7.97;;;6.37;;
16436;SDS011;8328;52.206;21.006;2023-09-08T08:28:40;11.17;;;6.90;;
16436;SDS011;8328;52.206;21.006;2023-09-08T08:31:06;8.83;;;6.63;;
16436;SDS011;8328;52.206;21.006;2023-09-08T08:33:32;8.03;;;6.67;;
16436;SDS011;8328;52.206;21.006;2023-09-08T08:35:58;9.60;;;6.50;;
16436;SDS011;8328;52.206;21.006;2023-09-08T08:38:25;8.27;;;6.27;;
16436;SDS011;8328;52.206;21.006;2023-09-08T08:40:51;7.80;;;6.17;;
16436;SDS011;8328;52.206;21.006;2023-09-08T08:43:17;12.20;;;7.00;;
16436;SDS011;8328;52.206;21.006;2023-09-08T08:45:44;14.40;;;6.63;;
16436;SDS011;8328;52.206;21.006;2023-09-08T08:48:12;11.53;;;6.50;;
16436;SDS011;8328;52.206;21.006;2023-09-08T08:50:39;10.30;;;6.53;;
16436;SDS011;8328;52.206;21.006;2023-09-08T08:53:08;9.80;;;6.10;;
16436;SDS011;8328;52.206;21.006;2023-09-08T08:55:34;11.40;;;7.70;;
16436;SDS011;8328;52.206;21.006;2023-09-08T08:58:01;7.03;;;6.30;;
16436;SDS011;8328;52.206;21.006;2023-09-08T09:00:29;9.50;;;6.60;;
16436;SDS011;8328;52.206;21.006;2023-09-08T09:02:55;10.73;;;6.00;;
16436;SDS011;8328;52.206;21.006;2023-09-08T09:05:23;8.90;;;5.93;;
16436;SDS011;8328;52.206;21.006;2023-09-08T09:07:50;9.60;;;6.17;;
16436;SDS011;8328;52.206;21.006;2023-09-08T09:10:16;8.93;;;6.57;;
16436;SDS011;8328;52.206;21.006;2023-09-08T09:12:43;8.43;;;5.70;;
16436;SDS011;8328;52.206;21.006;2023-09-08T09:15:09;10.33;;;7.80;;
16436;SDS011;8328;52.206;21.006;2023-09-08T09:17:36;9.43;;;5.97;;
16436;SDS011;8328;52.206;21.006;2023-09-08T09:20:13;13.23;;;6.17;;
16436;SDS011;8328;52.206;21.006;2023-09-08T09:22:43;6.77;;;6.07;;
16436;SDS011;8328;52.206;21.006;2023-09-08T09:25:09;7.47;;;5.87;;
16436;SDS011;8328;52.206;21.006;2023-09-08T09:27:36;8.63;;;5.90;;
16436;SDS011;8328;52.206;21.006;2023-09-08T09:30:04;10.60;;;6.10;;
16436;SDS011;8328;52.206;21.006;2023-09-08T09:32:30;6.47;;;5.67;;
16436;SDS011;8328;52.206;21.006;2023-09-08T09:34:56;5.93;;;5.33;;
16436;SDS011;8328;52.206;21.006;2023-09-08T09:37:26;6.40;;;5.20;;
16436;SDS011;8328;52.206;21.006;2023-09-08T09:39:55;6.67;;;5.03;;
16436;SDS011;8328;52.206;21.006;2023-09-08T09:42:21;7.67;;;5.23;;
16436;SDS011;8328;52.206;21.006;2023-09-08T09:44:48;5.40;;;4.77;;
16436;SDS011;8328;52.206;21.006;2023-09-08T09:47:14;5.73;;;5.13;;
16436;SDS011;8328;52.206;21.006;2023-09-08T09:49:44;6.73;;;6.00;;
16436;SDS011;8328;52.206;21.006;2023-09-08T09:52:11;5.90;;;5.23;;
16436;SDS011;8328;52.206;21.006;2023-09-08T09:54:39;5.13;;;4.60;;
16436;SDS011;8328;52.206;21.006;2023-09-08T09:57:06;7.50;;;4.33;;
16436;SDS011;8328;52.206;21.006;2023-09-08T09:59:32;7.47;;;5.17;;
16436;SDS011;8328;52.206;21.006;2023-09-08T10:01:59;5.73;;;4.97;;
16436;SDS011;8328;52.206;21.006;2023-09-08T10:04:25;9.97;;;5.50;;
16436;SDS011;8328;52.206;21.006;2023-09-08T10:06:53;9.17;;;5.50;;
16436;SDS011;8328;52.206;21.006;2023-09-08T10:09:19;9.23;;;5.33;;
16436;SDS011;8328;52.206;21.006;2023-09-08T10:11:46;6.37;;;4.87;;
16436;SDS011;8328;52.206;21.006;2023-09-08T10:14:14;5.97;;;5.13;;
16436;SDS011;8328;52.206;21.006;2023-09-08T10:16:41;5.83;;;5.30;;
16436;SDS011;8328;52.206;21.006;2023-09-08T10:19:09;5.90;;;5.30;;
16436;SDS011;8328;52.206;21.006;2023-09-08T10:21:38;7.70;;;7.00;;
16436;SDS011;8328;52.206;21.006;2023-09-08T10:24:06;5.63;;;5.13;;
16436;SDS011;8328;52.206;21.006;2023-09-08T10:26:37;7.33;;;6.17;;
16436;SDS011;8328;52.206;21.006;2023-09-08T10:29:06;7.67;;;5.30;;
16436;SDS011;8328;52.206;21.006;2023-09-08T10:31:32;5.87;;;5.10;;
16436;SDS011;8328;52.206;21.006;2023-09-08T10:33:59;5.73;;;5.20;;
16436;SDS011;8328;52.206;21.006;2023-09-08T10:36:27;5.37;;;4.87;;
16436;SDS011;8328;52.206;21.006;2023-09-08T10:38:53;8.20;;;5.60;;
16436;SDS011;8328;52.206;21.006;2023-09-08T10:43:57;5.87;;;5.37;;
16436;SDS011;8328;52.206;21.006;2023-09-08T10:46:27;6.10;;;5.00;;
16436;SDS011;8328;52.206;21.006;2023-09-08T10:48:54;6.20;;;4.80;;
16436;SDS011;8328;52.206;21.006;2023-09-08T10:51:25;5.40;;;4.90;;
16436;SDS011;8328;52.206;21.006;2023-09-08T10:53:51;5.33;;;4.80;;
16436;SDS011;8328;52.206;21.006;2023-09-08T10:56:19;5.83;;;4.43;;
16436;SDS011;8328;52.206;21.006;2023-09-08T10:58:49;5.07;;;4.57;;
16436;SDS011;8328;52.206;21.006;2023-09-08T11:01:18;6.20;;;5.03;;
16436;SDS011;8328;52.206;21.006;2023-09-08T11:03:51;6.67;;;5.03;;
16436;SDS011;8328;52.206;21.006;2023-09-08T11:06:19;9.53;;;5.07;;
16436;SDS011;8328;52.206;21.006;2023-09-08T11:08:47;5.63;;;4.80;;
16436;SDS011;8328;52.206;21.006;2023-09-08T11:11:15;5.53;;;4.83;;
16436;SDS011;8328;52.206;21.006;2023-09-08T11:13:42;6.40;;;5.00;;
16436;SDS011;8328;52.206;21.006;2023-09-08T11:16:12;5.83;;;4.93;;
16436;SDS011;8328;52.206;21.006;2023-09-08T11:18:46;5.80;;;5.10;;
16436;SDS011;8328;52.206;21.006;2023-09-08T11:21:12;5.40;;;4.80;;
16436;SDS011;8328;52.206;21.006;2023-09-08T11:23:38;5.87;;;4.97;;
16436;SDS011;8328;52.206;21.006;2023-09-08T11:26:04;5.87;;;4.70;;
16436;SDS011;8328;52.206;21.006;2023-09-08T11:28:34;8.13;;;4.97;;
16436;SDS011;8328;52.206;21.006;2023-09-08T11:31:00;5.93;;;4.90;;
16436;SDS011;8328;52.206;21.006;2023-09-08T11:33:32;8.63;;;4.73;;
16436;SDS011;8328;52.206;21.006;2023-09-08T11:35:59;7.03;;;4.97;;
16436;SDS011;8328;52.206;21.006;2023-09-08T12:39:40;6.53;;;5.83;;
16436;SDS011;8328;52.206;21.006;2023-09-08T17:00:20;10.45;;;9.13;;
16436;SDS011;8328;52.206;21.006;2023-09-08T17:02:46;13.47;;;8.40;;
16436;SDS011;8328;52.206;21.006;2023-09-08T17:05:12;10.57;;;8.60;;
16436;SDS011;8328;52.206;21.006;2023-09-08T17:07:42;9.37;;;8.37;;
16436;SDS011;8328;52.206;21.006;2023-09-08T17:10:08;11.37;;;9.17;;
16436;SDS011;8328;52.206;21.006;2023-09-08T17:12:35;16.23;;;9.03;;
16436;SDS011;8328;52.206;21.006;2023-09-08T17:15:01;10.03;;;8.80;;
16436;SDS011;8328;52.206;21.006;2023-09-08T17:17:28;14.30;;;8.60;;
16436;SDS011;8328;52.206;21.006;2023-09-08T17:19:54;9.83;;;8.80;;
16436;SDS011;8328;52.206;21.006;2023-09-08T17:22:22;12.90;;;8.80;;
16436;SDS011;8328;52.206;21.006;2023-09-08T17:24:51;11.97;;;8.77;;
16436;SDS011;8328;52.206;21.006;2023-09-08T17:27:17;11.33;;;8.93;;
16436;SDS011;8328;52.206;21.006;2023-09-08T17:29:44;11.77;;;9.30;;
16436;SDS011;8328;52.206;21.006;2023-09-08T17:32:10;10.90;;;9.10;;
16436;SDS011;8328;52.206;21.006;2023-09-08T17:34:36;14.03;;;8.87;;
16436;SDS011;8328;52.206;21.006;2023-09-08T17:37:02;10.20;;;8.80;;
16436;SDS011;8328;52.206;21.006;2023-09-08T17:39:28;11.53;;;8.40;;
16436;SDS011;8328;52.206;21.006;2023-09-08T17:41:55;10.43;;;8.27;;
16436;SDS011;8328;52.206;21.006;2023-09-08T17:44:21;11.43;;;9.53;;
16436;SDS011;8328;52.206;21.006;2023-09-08T17:46:48;11.23;;;9.00;;
16436;SDS011;8328;52.206;21.006;2023-09-08T17:49:14;12.30;;;9.45;;
16436;SDS011;8328;52.206;21.006;2023-09-08T17:51:40;13.07;;;9.20;;
16436;SDS011;8328;52.206;21.006;2023-09-08T17:54:06;12.55;;;9.13;;
16436;SDS011;8328;52.206;21.006;2023-09-08T17:56:33;12.43;;;8.98;;
16436;SDS011;8328;52.206;21.006;2023-09-08T17:58:59;13.77;;;9.60;;
16436;SDS011;8328;52.206;21.006;2023-09-08T18:01:25;13.13;;;9.55;;
16436;SDS011;8328;52.206;21.006;2023-09-08T18:03:51;14.77;;;9.83;;
16436;SDS011;8328;52.206;21.006;2023-09-08T18:06:17;13.40;;;9.82;;
16436;SDS011;8328;52.206;21.006;2023-09-08T18:08:43;13.98;;;9.65;;
16436;SDS011;8328;52.206;21.006;2023-09-08T18:11:10;13.82;;;9.57;;
16436;SDS011;8328;52.206;21.006;2023-09-08T18:13:36;13.00;;;9.80;;
16436;SDS011;8328;52.206;21.006;2023-09-08T18:16:03;13.00;;;9.93;;
16436;SDS011;8328;52.206;21.006;2023-09-08T18:18:29;13.55;;;10.00;;
16436;SDS011;8328;52.206;21.006;2023-09-08T18:20:56;14.93;;;10.33;;
16436;SDS011;8328;52.206;21.006;2023-09-08T18:23:22;13.45;;;9.60;;
16436;SDS011;8328;52.206;21.006;2023-09-08T18:25:48;11.38;;;9.52;;
16436;SDS011;8328;52.206;21.006;2023-09-08T18:28:14;10.50;;;9.23;;
16436;SDS011;8328;52.206;21.006;2023-09-08T18:30:41;17.00;;;9.70;;
16436;SDS011;8328;52.206;21.006;2023-09-08T18:33:07;12.40;;;9.85;;
16436;SDS011;8328;52.206;21.006;2023-09-08T18:35:33;16.10;;;9.52;;
16436;SDS011;8328;52.206;21.006;2023-09-08T18:38:00;12.45;;;9.30;;
16436;SDS011;8328;52.206;21.006;2023-09-08T18:40:26;15.05;;;9.60;;
16436;SDS011;8328;52.206;21.006;2023-09-08T18:42:52;15.50;;;10.73;;
16436;SDS011;8328;52.206;21.006;2023-09-08T18:45:19;13.68;;;11.15;;
16436;SDS011;8328;52.206;21.006;2023-09-08T18:47:45;14.70;;;10.87;;
16436;SDS011;8328;52.206;21.006;2023-09-08T18:50:12;15.32;;;10.45;;
16436;SDS011;8328;52.206;21.006;2023-09-08T18:52:39;15.00;;;10.37;;
16436;SDS011;8328;52.206;21.006;2023-09-08T18:55:05;17.02;;;10.05;;
16436;SDS011;8328;52.206;21.006;2023-09-08T18:57:35;15.98;;;9.70;;
16436;SDS011;8328;52.206;21.006;2023-09-08T19:00:21;13.02;;;9.57;;
16436;SDS011;8328;52.206;21.006;2023-09-08T19:02:50;16.55;;;10.40;;
16436;SDS011;8328;52.206;21.006;2023-09-08T19:05:19;13.00;;;9.93;;
16436;SDS011;8328;52.206;21.006;2023-09-08T19:07:45;14.48;;;10.00;;
16436;SDS011;8328;52.206;21.006;2023-09-08T19:10:11;13.70;;;9.45;;
16436;SDS011;8328;52.206;21.006;2023-09-08T19:12:38;15.25;;;10.23;;
16436;SDS011;8328;52.206;21.006;2023-09-08T19:15:04;13.85;;;10.70;;
16436;SDS011;8328;52.206;21.006;2023-09-08T19:17:32;12.37;;;10.37;;
16436;SDS011;8328;52.206;21.006;2023-09-08T19:19:58;14.80;;;11.43;;
16436;SDS011;8328;52.206;21.006;2023-09-08T19:22:24;14.80;;;11.10;;
16436;SDS011;8328;52.206;21.006;2023-09-08T19:24:50;13.77;;;11.07;;
16436;SDS011;8328;52.206;21.006;2023-09-08T19:27:17;13.07;;;11.30;;
16436;SDS011;8328;52.206;21.006;2023-09-08T19:29:46;15.80;;;11.18;;
16436;SDS011;8328;52.206;21.006;2023-09-08T19:32:13;18.40;;;11.83;;
16436;SDS011;8328;52.206;21.006;2023-09-08T19:34:39;17.17;;;11.50;;
16436;SDS011;8328;52.206;21.006;2023-09-08T19:37:06;14.10;;;10.65;;
16436;SDS011;8328;52.206;21.006;2023-09-08T19:39:32;11.88;;;10.30;;
16436;SDS011;8328;52.206;21.006;2023-09-08T19:41:58;13.02;;;10.73;;
16436;SDS011;8328;52.206;21.006;2023-09-08T19:44:25;13.23;;;10.90;;
16436;SDS011;8328;52.206;21.006;2023-09-08T19:46:51;13.82;;;11.27;;
16436;SDS011;8328;52.206;21.006;2023-09-08T19:49:17;13.90;;;11.25;;
16436;SDS011;8328;52.206;21.006;2023-09-08T19:51:43;14.37;;;11.47;;
16436;SDS011;8328;52.206;21.006;2023-09-08T19:54:09;14.25;;;10.93;;
16436;SDS011;8328;52.206;21.006;2023-09-08T19:56:36;12.40;;;10.80;;
16436;SDS011;8328;52.206;21.006;2023-09-08T19:59:02;15.95;;;11.15;;
16436;SDS011;8328;52.206;21.006;2023-09-08T20:01:29;14.65;;;11.18;;
16436;SDS011;8328;52.206;21.006;2023-09-08T20:03:55;14.20;;;11.18;;
16436;SDS011;8328;52.206;21.006;2023-09-08T20:06:21;13.23;;;10.93;;
16436;SDS011;8328;52.206;21.006;2023-09-08T20:08:49;14.20;;;10.82;;
16436;SDS011;8328;52.206;21.006;2023-09-08T20:11:15;17.27;;;12.10;;
16436;SDS011;8328;52.206;21.006;2023-09-08T20:13:41;17.05;;;11.93;;
16436;SDS011;8328;52.206;21.006;2023-09-08T20:16:09;16.75;;;11.73;;
16436;SDS011;8328;52.206;21.006;2023-09-08T20:18:36;13.88;;;11.70;;
16436;SDS011;8328;52.206;21.006;2023-09-08T20:21:03;15.15;;;11.82;;
16436;SDS011;8328;52.206;21.006;2023-09-08T20:23:30;14.25;;;11.73;;
16436;SDS011;8328;52.206;21.006;2023-09-08T20:25:57;15.70;;;12.00;;
16436;SDS011;8328;52.206;21.006;2023-09-08T20:28:23;16.40;;;11.52;;
16436;SDS011;8328;52.206;21.006;2023-09-08T20:30:52;13.50;;;11.77;;
16436;SDS011;8328;52.206;21.006;2023-09-08T20:33:19;13.57;;;11.93;;
16436;SDS011;8328;52.206;21.006;2023-09-08T20:35:45;15.45;;;12.45;;
16436;SDS011;8328;52.206;21.006;2023-09-08T20:38:12;15.77;;;11.87;;
16436;SDS011;8328;52.206;21.006;2023-09-08T20:40:45;16.23;;;12.45;;
16436;SDS011;8328;52.206;21.006;2023-09-08T20:43:12;16.70;;;12.60;;
16436;SDS011;8328;52.206;21.006;2023-09-08T20:45:39;16.95;;;12.70;;
16436;SDS011;8328;52.206;21.006;2023-09-08T20:48:05;14.98;;;11.90;;
16436;SDS011;8328;52.206;21.006;2023-09-08T20:50:32;12.25;;;10.93;;
16436;SDS011;8328;52.206;21.006;2023-09-08T20:52:58;14.65;;;11.57;;
16436;SDS011;8328;52.206;21.006;2023-09-08T20:55:24;15.50;;;11.27;;
16436;SDS011;8328;52.206;21.006;2023-09-08T20:57:50;14.35;;;11.63;;
16436;SDS011;8328;52.206;21.006;2023-09-08T21:00:16;14.80;;;11.38;;
16436;SDS011;8328;52.206;21.006;2023-09-08T21:02:42;13.30;;;11.30;;
16436;SDS011;8328;52.206;21.006;2023-09-08T21:05:08;14.45;;;11.02;;
16436;SDS011;8328;52.206;21.006;2023-09-08T21:07:35;20.33;;;16.03;;
16436;SDS011;8328;52.206;21.006;2023-09-08T21:10:01;14.73;;;11.10;;
16436;SDS011;8328;52.206;21.006;2023-09-08T21:12:27;14.15;;;11.27;;
16436;SDS011;8328;52.206;21.006;2023-09-08T21:14:53;15.00;;;11.18;;
16436;SDS011;8328;52.206;21.006;2023-09-08T21:17:19;14.73;;;11.52;;
16436;SDS011;8328;52.206;21.006;2023-09-08T21:19:45;14.27;;;11.07;;
16436;SDS011;8328;52.206;21.006;2023-09-08T21:22:11;15.32;;;11.68;;
16436;SDS011;8328;52.206;21.006;2023-09-08T21:24:37;16.52;;;11.57;;
16436;SDS011;8328;52.206;21.006;2023-09-08T21:27:03;13.65;;;11.77;;
16436;SDS011;8328;52.206;21.006;2023-09-08T21:29:29;12.93;;;11.52;;
16436;SDS011;8328;52.206;21.006;2023-09-08T21:31:56;12.43;;;11.07;;
16436;SDS011;8328;52.206;21.006;2023-09-08T21:34:22;12.93;;;10.77;;